sensor_id;sensor_type;location;lat;lon;timestamp;P1;durP1;ratioP1;P2;durP2;ratioP2
57025;SDS011;43961;52.940;6.834;2023-02-28T00:00:35;17.13;;;9.50;;
57025;SDS011;43961;52.940;6.834;2023-02-28T00:03:01;10.55;;;8.20;;
57025;SDS011;43961;52.940;6.834;2023-02-28T00:05:29;13.73;;;8.18;;
57025;SDS011;43961;52.940;6.834;2023-02-28T00:07:55;12.07;;;8.30;;
57025;SDS011;43961;52.940;6.834;2023-02-28T00:10:22;12.00;;;9.05;;
57025;SDS011;43961;52.940;6.834;2023-02-28T00:12:51;15.75;;;8.50;;
57025;SDS011;43961;52.940;6.834;2023-02-28T00:15:19;13.48;;;8.82;;
57025;SDS011;43961;52.940;6.834;2023-02-28T00:17:45;15.55;;;9.05;;
57025;SDS011;43961;52.940;6.834;2023-02-28T00:20:11;11.65;;;8.38;;
57025;SDS011;43961;52.940;6.834;2023-02-28T00:22:39;13.85;;;8.68;;
57025;SDS011;43961;52.940;6.834;2023-02-28T00:25:07;19.13;;;10.38;;
57025;SDS011;43961;52.940;6.834;2023-02-28T00:27:37;15.65;;;9.73;;
57025;SDS011;43961;52.940;6.834;2023-02-28T00:30:04;18.95;;;9.73;;
57025;SDS011;43961;52.940;6.834;2023-02-28T00:32:31;11.50;;;8.27;;
57025;SDS011;43961;52.940;6.834;2023-02-28T00:34:57;18.83;;;9.32;;
57025;SDS011;43961;52.940;6.834;2023-02-28T00:37:23;17.40;;;8.38;;
57025;SDS011;43961;52.940;6.834;2023-02-28T00:39:48;12.82;;;7.93;;
57025;SDS011;43961;52.940;6.834;2023-02-28T00:42:14;14.70;;;7.90;;
57025;SDS011;43961;52.940;6.834;2023-02-28T00:44:41;13.25;;;7.47;;
57025;SDS011;43961;52.940;6.834;2023-02-28T00:47:06;12.90;;;7.82;;
57025;SDS011;43961;52.940;6.834;2023-02-28T00:49:32;19.58;;;8.43;;
57025;SDS011;43961;52.940;6.834;2023-02-28T00:51:58;18.13;;;8.45;;
57025;SDS011;43961;52.940;6.834;2023-02-28T00:54:23;12.80;;;7.32;;
57025;SDS011;43961;52.940;6.834;2023-02-28T00:56:49;15.80;;;7.75;;
57025;SDS011;43961;52.940;6.834;2023-02-28T00:59:16;12.60;;;7.38;;
57025;SDS011;43961;52.940;6.834;2023-02-28T01:01:43;12.98;;;7.88;;
57025;SDS011;43961;52.940;6.834;2023-02-28T01:04:09;10.80;;;7.65;;
57025;SDS011;43961;52.940;6.834;2023-02-28T01:06:35;12.10;;;7.70;;
57025;SDS011;43961;52.940;6.834;2023-02-28T01:09:01;10.38;;;8.13;;
57025;SDS011;43961;52.940;6.834;2023-02-28T01:11:28;12.07;;;7.25;;
57025;SDS011;43961;52.940;6.834;2023-02-28T01:13:54;14.95;;;7.78;;
57025;SDS011;43961;52.940;6.834;2023-02-28T01:16:19;10.10;;;7.38;;
57025;SDS011;43961;52.940;6.834;2023-02-28T01:18:45;12.75;;;7.45;;
57025;SDS011;43961;52.940;6.834;2023-02-28T01:21:12;20.48;;;9.38;;
57025;SDS011;43961;52.940;6.834;2023-02-28T01:23:39;17.10;;;8.75;;
57025;SDS011;43961;52.940;6.834;2023-02-28T01:26:06;10.40;;;8.02;;
57025;SDS011;43961;52.940;6.834;2023-02-28T01:28:34;9.45;;;7.43;;
57025;SDS011;43961;52.940;6.834;2023-02-28T01:31:00;17.02;;;8.07;;
57025;SDS011;43961;52.940;6.834;2023-02-28T01:33:26;13.02;;;9.63;;
57025;SDS011;43961;52.940;6.834;2023-02-28T01:36:02;12.57;;;8.90;;
57025;SDS011;43961;52.940;6.834;2023-02-28T01:38:30;9.05;;;7.00;;
57025;SDS011;43961;52.940;6.834;2023-02-28T01:40:56;10.90;;;8.52;;
57025;SDS011;43961;52.940;6.834;2023-02-28T01:43:23;13.13;;;8.57;;
57025;SDS011;43961;52.940;6.834;2023-02-28T01:45:52;17.00;;;9.75;;
57025;SDS011;43961;52.940;6.834;2023-02-28T01:48:21;22.45;;;8.93;;
57025;SDS011;43961;52.940;6.834;2023-02-28T01:50:59;11.25;;;8.95;;
57025;SDS011;43961;52.940;6.834;2023-02-28T01:53:32;11.52;;;8.60;;
57025;SDS011;43961;52.940;6.834;2023-02-28T01:56:03;14.15;;;9.80;;
57025;SDS011;43961;52.940;6.834;2023-02-28T01:58:31;15.88;;;9.77;;
57025;SDS011;43961;52.940;6.834;2023-02-28T02:00:57;15.20;;;10.32;;
57025;SDS011;43961;52.940;6.834;2023-02-28T02:03:23;19.05;;;10.85;;
57025;SDS011;43961;52.940;6.834;2023-02-28T02:05:49;20.83;;;11.75;;
57025;SDS011;43961;52.940;6.834;2023-02-28T02:08:19;12.60;;;9.65;;
57025;SDS011;43961;52.940;6.834;2023-02-28T02:10:53;11.30;;;9.25;;
57025;SDS011;43961;52.940;6.834;2023-02-28T02:13:28;12.52;;;8.98;;
57025;SDS011;43961;52.940;6.834;2023-02-28T02:38:52;16.50;;;9.38;;
57025;SDS011;43961;52.940;6.834;2023-02-28T02:41:41;16.70;;;9.50;;
57025;SDS011;43961;52.940;6.834;2023-02-28T02:44:27;13.70;;;8.20;;
57025;SDS011;43961;52.940;6.834;2023-02-28T02:47:12;11.43;;;7.82;;
57025;SDS011;43961;52.940;6.834;2023-02-28T02:49:43;13.20;;;8.60;;
57025;SDS011;43961;52.940;6.834;2023-02-28T02:52:17;13.52;;;9.55;;
57025;SDS011;43961;52.940;6.834;2023-02-28T02:54:46;14.57;;;8.80;;
57025;SDS011;43961;52.940;6.834;2023-02-28T02:59:48;12.88;;;9.52;;
57025;SDS011;43961;52.940;6.834;2023-02-28T03:02:16;11.70;;;8.30;;
57025;SDS011;43961;52.940;6.834;2023-02-28T03:04:45;11.85;;;8.30;;
57025;SDS011;43961;52.940;6.834;2023-02-28T03:07:15;9.70;;;8.45;;
57025;SDS011;43961;52.940;6.834;2023-02-28T03:09:49;11.73;;;8.93;;
57025;SDS011;43961;52.940;6.834;2023-02-28T03:15:24;11.00;;;8.35;;
57025;SDS011;43961;52.940;6.834;2023-02-28T03:18:08;12.85;;;8.73;;
57025;SDS011;43961;52.940;6.834;2023-02-28T03:23:34;11.15;;;8.52;;
57025;SDS011;43961;52.940;6.834;2023-02-28T03:26:07;13.70;;;9.05;;
57025;SDS011;43961;52.940;6.834;2023-02-28T03:31:26;12.63;;;9.65;;
57025;SDS011;43961;52.940;6.834;2023-02-28T03:34:07;10.98;;;8.85;;
57025;SDS011;43961;52.940;6.834;2023-02-28T03:36:55;12.18;;;9.38;;
57025;SDS011;43961;52.940;6.834;2023-02-28T03:39:28;12.48;;;9.45;;
57025;SDS011;43961;52.940;6.834;2023-02-28T03:42:10;15.40;;;9.35;;
57025;SDS011;43961;52.940;6.834;2023-02-28T03:44:40;13.57;;;9.75;;
57025;SDS011;43961;52.940;6.834;2023-02-28T03:47:14;11.40;;;9.20;;
57025;SDS011;43961;52.940;6.834;2023-02-28T03:49:45;10.27;;;8.95;;
57025;SDS011;43961;52.940;6.834;2023-02-28T03:52:19;11.93;;;8.93;;
57025;SDS011;43961;52.940;6.834;2023-02-28T03:54:55;11.82;;;9.55;;
57025;SDS011;43961;52.940;6.834;2023-02-28T04:00:20;16.35;;;9.70;;
57025;SDS011;43961;52.940;6.834;2023-02-28T04:02:53;11.82;;;9.50;;
57025;SDS011;43961;52.940;6.834;2023-02-28T04:05:20;10.05;;;9.05;;
57025;SDS011;43961;52.940;6.834;2023-02-28T04:07:47;10.90;;;9.05;;
57025;SDS011;43961;52.940;6.834;2023-02-28T04:10:13;13.70;;;10.43;;
57025;SDS011;43961;52.940;6.834;2023-02-28T04:12:39;9.75;;;8.73;;
57025;SDS011;43961;52.940;6.834;2023-02-28T04:15:05;13.45;;;10.18;;
57025;SDS011;43961;52.940;6.834;2023-02-28T04:17:31;14.60;;;10.48;;
57025;SDS011;43961;52.940;6.834;2023-02-28T04:19:57;12.27;;;10.30;;
57025;SDS011;43961;52.940;6.834;2023-02-28T04:22:23;12.77;;;9.57;;
57025;SDS011;43961;52.940;6.834;2023-02-28T04:24:51;14.48;;;9.57;;
57025;SDS011;43961;52.940;6.834;2023-02-28T04:27:20;13.30;;;9.75;;
57025;SDS011;43961;52.940;6.834;2023-02-28T04:29:47;13.32;;;9.85;;
57025;SDS011;43961;52.940;6.834;2023-02-28T04:32:13;22.00;;;10.93;;
57025;SDS011;43961;52.940;6.834;2023-02-28T04:34:38;12.00;;;10.35;;
57025;SDS011;43961;52.940;6.834;2023-02-28T04:37:04;13.50;;;9.98;;
57025;SDS011;43961;52.940;6.834;2023-02-28T04:39:34;13.15;;;9.68;;
57025;SDS011;43961;52.940;6.834;2023-02-28T04:42:01;13.15;;;10.07;;
57025;SDS011;43961;52.940;6.834;2023-02-28T04:44:27;14.43;;;11.05;;
57025;SDS011;43961;52.940;6.834;2023-02-28T04:46:53;12.23;;;10.52;;
57025;SDS011;43961;52.940;6.834;2023-02-28T04:49:18;13.75;;;10.73;;
57025;SDS011;43961;52.940;6.834;2023-02-28T04:51:44;14.20;;;10.93;;
57025;SDS011;43961;52.940;6.834;2023-02-28T04:54:10;16.98;;;11.63;;
57025;SDS011;43961;52.940;6.834;2023-02-28T04:56:35;19.08;;;10.23;;
57025;SDS011;43961;52.940;6.834;2023-02-28T04:59:01;14.52;;;10.23;;
57025;SDS011;43961;52.940;6.834;2023-02-28T05:01:28;13.80;;;11.48;;
57025;SDS011;43961;52.940;6.834;2023-02-28T05:03:55;20.25;;;13.00;;
57025;SDS011;43961;52.940;6.834;2023-02-28T05:06:23;19.33;;;13.10;;
57025;SDS011;43961;52.940;6.834;2023-02-28T05:08:50;23.05;;;14.65;;
57025;SDS011;43961;52.940;6.834;2023-02-28T05:13:48;17.15;;;12.95;;
57025;SDS011;43961;52.940;6.834;2023-02-28T05:16:15;17.02;;;12.77;;
57025;SDS011;43961;52.940;6.834;2023-02-28T05:18:41;18.02;;;12.45;;
57025;SDS011;43961;52.940;6.834;2023-02-28T05:23:56;14.63;;;12.30;;
57025;SDS011;43961;52.940;6.834;2023-02-28T05:26:25;21.60;;;13.07;;
57025;SDS011;43961;52.940;6.834;2023-02-28T05:28:51;18.42;;;13.10;;
57025;SDS011;43961;52.940;6.834;2023-02-28T05:31:18;15.85;;;11.95;;
57025;SDS011;43961;52.940;6.834;2023-02-28T05:33:43;15.95;;;13.45;;
57025;SDS011;43961;52.940;6.834;2023-02-28T05:36:09;19.20;;;13.25;;
57025;SDS011;43961;52.940;6.834;2023-02-28T05:38:35;15.93;;;12.90;;
57025;SDS011;43961;52.940;6.834;2023-02-28T05:41:04;21.52;;;12.45;;
57025;SDS011;43961;52.940;6.834;2023-02-28T05:43:34;19.00;;;12.38;;
57025;SDS011;43961;52.940;6.834;2023-02-28T05:46:04;16.77;;;12.15;;
57025;SDS011;43961;52.940;6.834;2023-02-28T05:48:31;14.93;;;12.05;;
57025;SDS011;43961;52.940;6.834;2023-02-28T05:50:57;19.25;;;14.32;;
57025;SDS011;43961;52.940;6.834;2023-02-28T05:53:23;17.73;;;13.25;;
57025;SDS011;43961;52.940;6.834;2023-02-28T05:55:49;18.95;;;14.35;;
57025;SDS011;43961;52.940;6.834;2023-02-28T05:58:14;19.45;;;14.50;;
57025;SDS011;43961;52.940;6.834;2023-02-28T06:00:40;23.90;;;14.75;;
57025;SDS011;43961;52.940;6.834;2023-02-28T06:03:06;20.98;;;15.25;;
57025;SDS011;43961;52.940;6.834;2023-02-28T06:05:31;23.20;;;14.25;;
57025;SDS011;43961;52.940;6.834;2023-02-28T06:07:58;32.78;;;19.35;;
57025;SDS011;43961;52.940;6.834;2023-02-28T06:10:23;24.40;;;14.57;;
57025;SDS011;43961;52.940;6.834;2023-02-28T06:12:49;20.33;;;15.70;;
57025;SDS011;43961;52.940;6.834;2023-02-28T06:15:15;20.98;;;14.98;;
57025;SDS011;43961;52.940;6.834;2023-02-28T06:17:42;16.52;;;12.77;;
57025;SDS011;43961;52.940;6.834;2023-02-28T06:20:10;19.25;;;15.57;;
57025;SDS011;43961;52.940;6.834;2023-02-28T06:22:38;19.80;;;15.55;;
57025;SDS011;43961;52.940;6.834;2023-02-28T06:25:05;18.20;;;14.25;;
57025;SDS011;43961;52.940;6.834;2023-02-28T06:27:32;22.25;;;15.98;;
57025;SDS011;43961;52.940;6.834;2023-02-28T06:29:58;21.10;;;15.95;;
57025;SDS011;43961;52.940;6.834;2023-02-28T06:32:24;27.23;;;17.77;;
57025;SDS011;43961;52.940;6.834;2023-02-28T06:34:50;23.27;;;16.30;;
57025;SDS011;43961;52.940;6.834;2023-02-28T06:37:17;24.73;;;16.27;;
57025;SDS011;43961;52.940;6.834;2023-02-28T06:39:43;24.20;;;17.58;;
57025;SDS011;43961;52.940;6.834;2023-02-28T06:42:08;25.52;;;17.60;;
57025;SDS011;43961;52.940;6.834;2023-02-28T06:44:34;23.77;;;15.55;;
57025;SDS011;43961;52.940;6.834;2023-02-28T06:47:02;30.42;;;18.85;;
57025;SDS011;43961;52.940;6.834;2023-02-28T06:49:30;29.38;;;17.35;;
57025;SDS011;43961;52.940;6.834;2023-02-28T06:51:57;25.00;;;18.03;;
57025;SDS011;43961;52.940;6.834;2023-02-28T06:54:23;23.05;;;15.88;;
57025;SDS011;43961;52.940;6.834;2023-02-28T06:56:48;25.55;;;17.63;;
57025;SDS011;43961;52.940;6.834;2023-02-28T06:59:14;31.17;;;17.30;;
57025;SDS011;43961;52.940;6.834;2023-02-28T07:01:40;23.58;;;16.30;;
57025;SDS011;43961;52.940;6.834;2023-02-28T07:04:06;24.90;;;17.42;;
57025;SDS011;43961;52.940;6.834;2023-02-28T07:06:32;27.10;;;17.27;;
57025;SDS011;43961;52.940;6.834;2023-02-28T07:08:57;24.95;;;17.80;;
57025;SDS011;43961;52.940;6.834;2023-02-28T07:11:24;22.98;;;16.88;;
57025;SDS011;43961;52.940;6.834;2023-02-28T07:13:51;24.90;;;17.00;;
57025;SDS011;43961;52.940;6.834;2023-02-28T07:16:20;25.52;;;18.55;;
57025;SDS011;43961;52.940;6.834;2023-02-28T07:21:12;27.10;;;18.75;;
57025;SDS011;43961;52.940;6.834;2023-02-28T07:23:38;25.98;;;17.98;;
57025;SDS011;43961;52.940;6.834;2023-02-28T07:26:05;23.90;;;18.05;;
57025;SDS011;43961;52.940;6.834;2023-02-28T07:28:32;25.58;;;18.40;;
57025;SDS011;43961;52.940;6.834;2023-02-28T07:31:02;22.33;;;17.73;;
57025;SDS011;43961;52.940;6.834;2023-02-28T07:33:30;24.83;;;18.48;;
57025;SDS011;43961;52.940;6.834;2023-02-28T07:36:00;26.08;;;18.92;;
57025;SDS011;43961;52.940;6.834;2023-02-28T07:38:26;27.70;;;19.05;;
57025;SDS011;43961;52.940;6.834;2023-02-28T07:40:52;24.25;;;17.65;;
57025;SDS011;43961;52.940;6.834;2023-02-28T07:43:17;25.35;;;19.05;;
57025;SDS011;43961;52.940;6.834;2023-02-28T07:45:43;27.20;;;18.45;;
57025;SDS011;43961;52.940;6.834;2023-02-28T07:48:09;29.73;;;18.70;;
57025;SDS011;43961;52.940;6.834;2023-02-28T07:50:35;28.15;;;18.45;;
57025;SDS011;43961;52.940;6.834;2023-02-28T07:53:00;24.73;;;18.42;;
57025;SDS011;43961;52.940;6.834;2023-02-28T07:55:26;25.80;;;19.25;;
57025;SDS011;43961;52.940;6.834;2023-02-28T07:57:52;27.88;;;18.77;;
57025;SDS011;43961;52.940;6.834;2023-02-28T08:00:18;26.15;;;19.65;;
57025;SDS011;43961;52.940;6.834;2023-02-28T08:02:44;30.20;;;20.25;;
57025;SDS011;43961;52.940;6.834;2023-02-28T08:05:09;29.45;;;19.45;;
57025;SDS011;43961;52.940;6.834;2023-02-28T08:07:35;33.00;;;21.60;;
57025;SDS011;43961;52.940;6.834;2023-02-28T08:10:01;34.03;;;23.20;;
57025;SDS011;43961;52.940;6.834;2023-02-28T08:12:26;31.33;;;23.85;;
57025;SDS011;43961;52.940;6.834;2023-02-28T08:14:53;25.75;;;20.27;;
57025;SDS011;43961;52.940;6.834;2023-02-28T08:17:19;31.27;;;20.83;;
57025;SDS011;43961;52.940;6.834;2023-02-28T08:19:45;29.42;;;20.35;;
57025;SDS011;43961;52.940;6.834;2023-02-28T08:22:11;26.60;;;20.40;;
57025;SDS011;43961;52.940;6.834;2023-02-28T08:24:36;29.35;;;22.30;;
57025;SDS011;43961;52.940;6.834;2023-02-28T08:27:02;29.48;;;18.77;;
57025;SDS011;43961;52.940;6.834;2023-02-28T08:29:28;31.92;;;20.63;;
57025;SDS011;43961;52.940;6.834;2023-02-28T08:31:55;28.05;;;21.40;;
57025;SDS011;43961;52.940;6.834;2023-02-28T08:34:21;32.85;;;19.98;;
57025;SDS011;43961;52.940;6.834;2023-02-28T08:36:48;24.95;;;18.17;;
57025;SDS011;43961;52.940;6.834;2023-02-28T08:39:13;29.55;;;19.85;;
57025;SDS011;43961;52.940;6.834;2023-02-28T08:41:39;26.00;;;19.52;;
57025;SDS011;43961;52.940;6.834;2023-02-28T08:44:05;24.10;;;19.33;;
57025;SDS011;43961;52.940;6.834;2023-02-28T08:46:30;26.10;;;19.95;;
57025;SDS011;43961;52.940;6.834;2023-02-28T08:48:56;28.70;;;20.25;;
57025;SDS011;43961;52.940;6.834;2023-02-28T08:51:27;24.40;;;18.52;;
57025;SDS011;43961;52.940;6.834;2023-02-28T08:54:00;25.55;;;20.23;;
57025;SDS011;43961;52.940;6.834;2023-02-28T08:56:26;27.70;;;20.58;;
57025;SDS011;43961;52.940;6.834;2023-02-28T08:58:54;31.05;;;18.85;;
57025;SDS011;43961;52.940;6.834;2023-02-28T09:01:22;24.13;;;20.48;;
57025;SDS011;43961;52.940;6.834;2023-02-28T09:03:52;28.50;;;21.33;;
57025;SDS011;43961;52.940;6.834;2023-02-28T09:06:19;26.63;;;20.70;;
57025;SDS011;43961;52.940;6.834;2023-02-28T09:08:46;25.50;;;19.70;;
57025;SDS011;43961;52.940;6.834;2023-02-28T09:11:12;30.02;;;21.55;;
57025;SDS011;43961;52.940;6.834;2023-02-28T09:13:38;29.20;;;21.45;;
57025;SDS011;43961;52.940;6.834;2023-02-28T09:16:06;29.30;;;20.77;;
57025;SDS011;43961;52.940;6.834;2023-02-28T09:18:35;27.52;;;20.05;;
57025;SDS011;43961;52.940;6.834;2023-02-28T09:21:06;28.73;;;19.67;;
57025;SDS011;43961;52.940;6.834;2023-02-28T09:23:33;29.63;;;21.50;;
57025;SDS011;43961;52.940;6.834;2023-02-28T09:25:59;23.63;;;18.75;;
57025;SDS011;43961;52.940;6.834;2023-02-28T09:28:26;33.97;;;20.15;;
57025;SDS011;43961;52.940;6.834;2023-02-28T09:30:53;27.45;;;21.27;;
57025;SDS011;43961;52.940;6.834;2023-02-28T09:33:19;29.02;;;20.02;;
57025;SDS011;43961;52.940;6.834;2023-02-28T09:35:47;34.22;;;20.65;;
57025;SDS011;43961;52.940;6.834;2023-02-28T09:38:13;23.80;;;19.60;;
57025;SDS011;43961;52.940;6.834;2023-02-28T09:40:47;27.88;;;22.30;;
57025;SDS011;43961;52.940;6.834;2023-02-28T09:43:15;22.25;;;17.02;;
57025;SDS011;43961;52.940;6.834;2023-02-28T09:45:50;19.27;;;14.10;;
57025;SDS011;43961;52.940;6.834;2023-02-28T09:48:25;19.33;;;14.98;;
57025;SDS011;43961;52.940;6.834;2023-02-28T09:51:05;19.02;;;14.48;;
57025;SDS011;43961;52.940;6.834;2023-02-28T09:53:37;17.00;;;14.20;;
57025;SDS011;43961;52.940;6.834;2023-02-28T09:56:08;15.43;;;12.80;;
57025;SDS011;43961;52.940;6.834;2023-02-28T09:58:55;15.73;;;12.68;;
57025;SDS011;43961;52.940;6.834;2023-02-28T10:01:34;16.98;;;14.00;;
57025;SDS011;43961;52.940;6.834;2023-02-28T10:04:30;14.35;;;12.80;;
57025;SDS011;43961;52.940;6.834;2023-02-28T10:07:24;16.10;;;14.07;;
57025;SDS011;43961;52.940;6.834;2023-02-28T10:10:21;18.05;;;14.27;;
57025;SDS011;43961;52.940;6.834;2023-02-28T10:12:55;14.27;;;12.23;;
57025;SDS011;43961;52.940;6.834;2023-02-28T10:15:25;15.40;;;12.32;;
57025;SDS011;43961;52.940;6.834;2023-02-28T10:17:56;14.32;;;11.75;;
57025;SDS011;43961;52.940;6.834;2023-02-28T10:20:25;12.32;;;9.55;;
57025;SDS011;43961;52.940;6.834;2023-02-28T10:25:33;18.70;;;10.60;;
57025;SDS011;43961;52.940;6.834;2023-02-28T10:28:01;12.70;;;11.32;;
57025;SDS011;43961;52.940;6.834;2023-02-28T10:30:39;10.45;;;8.93;;
57025;SDS011;43961;52.940;6.834;2023-02-28T10:33:23;11.32;;;8.93;;
57025;SDS011;43961;52.940;6.834;2023-02-28T10:35:53;14.38;;;10.45;;
57025;SDS011;43961;52.940;6.834;2023-02-28T10:38:22;11.50;;;8.65;;
57025;SDS011;43961;52.940;6.834;2023-02-28T10:41:03;8.35;;;7.55;;
57025;SDS011;43961;52.940;6.834;2023-02-28T10:43:40;13.25;;;9.20;;
57025;SDS011;43961;52.940;6.834;2023-02-28T10:48:34;11.98;;;8.93;;
57025;SDS011;43961;52.940;6.834;2023-02-28T10:51:07;11.15;;;7.78;;
57025;SDS011;43961;52.940;6.834;2023-02-28T10:53:38;9.40;;;7.35;;
57025;SDS011;43961;52.940;6.834;2023-02-28T11:01:23;7.45;;;6.38;;
57025;SDS011;43961;52.940;6.834;2023-02-28T11:03:58;10.35;;;8.02;;
57025;SDS011;43961;52.940;6.834;2023-02-28T11:06:32;10.15;;;7.70;;
57025;SDS011;43961;52.940;6.834;2023-02-28T11:09:22;10.07;;;8.00;;
57025;SDS011;43961;52.940;6.834;2023-02-28T11:11:49;9.52;;;7.90;;
57025;SDS011;43961;52.940;6.834;2023-02-28T11:14:24;10.38;;;8.77;;
57025;SDS011;43961;52.940;6.834;2023-02-28T11:16:52;10.40;;;9.30;;
57025;SDS011;43961;52.940;6.834;2023-02-28T11:19:24;9.30;;;8.45;;
57025;SDS011;43961;52.940;6.834;2023-02-28T11:21:57;9.23;;;8.32;;
57025;SDS011;43961;52.940;6.834;2023-02-28T11:24:30;11.98;;;10.60;;
57025;SDS011;43961;52.940;6.834;2023-02-28T11:27:02;10.90;;;9.80;;
57025;SDS011;43961;52.940;6.834;2023-02-28T11:29:29;12.85;;;10.60;;
57025;SDS011;43961;52.940;6.834;2023-02-28T11:34:41;12.48;;;11.25;;
57025;SDS011;43961;52.940;6.834;2023-02-28T11:37:25;14.23;;;12.10;;
57025;SDS011;43961;52.940;6.834;2023-02-28T11:39:53;13.18;;;11.77;;
57025;SDS011;43961;52.940;6.834;2023-02-28T11:45:15;14.27;;;12.10;;
57025;SDS011;43961;52.940;6.834;2023-02-28T11:48:45;12.07;;;10.75;;
57025;SDS011;43961;52.940;6.834;2023-02-28T11:51:18;13.32;;;12.02;;
57025;SDS011;43961;52.940;6.834;2023-02-28T12:08:06;15.30;;;12.27;;
57025;SDS011;43961;52.940;6.834;2023-02-28T12:10:39;16.27;;;11.52;;
57025;SDS011;43961;52.940;6.834;2023-02-28T12:13:21;14.63;;;11.43;;
57025;SDS011;43961;52.940;6.834;2023-02-28T12:21:04;12.20;;;11.07;;
57025;SDS011;43961;52.940;6.834;2023-02-28T12:24:10;14.25;;;12.95;;
57025;SDS011;43961;52.940;6.834;2023-02-28T12:26:44;13.93;;;12.52;;
57025;SDS011;43961;52.940;6.834;2023-02-28T12:29:19;14.38;;;12.77;;
57025;SDS011;43961;52.940;6.834;2023-02-28T12:34:52;14.33;;;12.67;;
57025;SDS011;43961;52.940;6.834;2023-02-28T12:40:21;14.88;;;12.93;;
57025;SDS011;43961;52.940;6.834;2023-02-28T12:42:49;14.98;;;13.48;;
57025;SDS011;43961;52.940;6.834;2023-02-28T12:47:58;12.10;;;10.90;;
57025;SDS011;43961;52.940;6.834;2023-02-28T12:50:26;14.00;;;11.85;;
57025;SDS011;43961;52.940;6.834;2023-02-28T12:55:51;13.45;;;12.05;;
57025;SDS011;43961;52.940;6.834;2023-02-28T12:58:39;16.10;;;12.70;;
57025;SDS011;43961;52.940;6.834;2023-02-28T13:01:29;17.73;;;13.20;;
57025;SDS011;43961;52.940;6.834;2023-02-28T13:09:33;12.48;;;11.20;;
57025;SDS011;43961;52.940;6.834;2023-02-28T13:11:59;12.93;;;10.55;;
57025;SDS011;43961;52.940;6.834;2023-02-28T13:14:42;13.90;;;11.13;;
57025;SDS011;43961;52.940;6.834;2023-02-28T13:19:56;15.35;;;10.73;;
57025;SDS011;43961;52.940;6.834;2023-02-28T13:22:37;11.57;;;10.35;;
57025;SDS011;43961;52.940;6.834;2023-02-28T13:28:11;22.40;;;12.02;;
57025;SDS011;43961;52.940;6.834;2023-02-28T13:33:36;10.93;;;9.82;;
57025;SDS011;43961;52.940;6.834;2023-02-28T13:44:02;11.18;;;10.02;;
57025;SDS011;43961;52.940;6.834;2023-02-28T13:46:31;10.75;;;9.68;;
57025;SDS011;43961;52.940;6.834;2023-02-28T13:52:02;10.90;;;9.77;;
57025;SDS011;43961;52.940;6.834;2023-02-28T13:54:51;10.95;;;9.95;;
57025;SDS011;43961;52.940;6.834;2023-02-28T14:03:37;8.77;;;7.97;;
57025;SDS011;43961;52.940;6.834;2023-02-28T14:11:38;8.85;;;8.13;;
57025;SDS011;43961;52.940;6.834;2023-02-28T14:14:06;8.57;;;7.80;;
57025;SDS011;43961;52.940;6.834;2023-02-28T14:19:12;11.90;;;10.63;;
57025;SDS011;43961;52.940;6.834;2023-02-28T14:21:50;10.60;;;9.30;;
57025;SDS011;43961;52.940;6.834;2023-02-28T14:32:31;10.57;;;8.65;;
57025;SDS011;43961;52.940;6.834;2023-02-28T14:37:50;9.52;;;8.63;;
57025;SDS011;43961;52.940;6.834;2023-02-28T14:40:28;9.63;;;7.43;;
57025;SDS011;43961;52.940;6.834;2023-02-28T14:43:47;8.48;;;7.63;;
57025;SDS011;43961;52.940;6.834;2023-02-28T14:45:51;12.43;;;10.23;;
57025;SDS011;43961;52.940;6.834;2023-02-28T14:48:20;9.27;;;8.32;;
57025;SDS011;43961;52.940;6.834;2023-02-28T14:50:54;9.75;;;8.85;;
57025;SDS011;43961;52.940;6.834;2023-02-28T14:53:28;13.20;;;9.25;;
57025;SDS011;43961;52.940;6.834;2023-02-28T14:56:00;9.93;;;9.02;;
57025;SDS011;43961;52.940;6.834;2023-02-28T14:58:27;13.57;;;9.48;;
57025;SDS011;43961;52.940;6.834;2023-02-28T15:00:58;13.30;;;10.18;;
57025;SDS011;43961;52.940;6.834;2023-02-28T15:06:06;11.20;;;10.13;;
57025;SDS011;43961;52.940;6.834;2023-02-28T15:08:40;11.10;;;10.10;;
57025;SDS011;43961;52.940;6.834;2023-02-28T15:11:24;14.48;;;10.73;;
57025;SDS011;43961;52.940;6.834;2023-02-28T15:13:53;11.68;;;10.50;;
57025;SDS011;43961;52.940;6.834;2023-02-28T15:16:36;11.02;;;8.57;;
57025;SDS011;43961;52.940;6.834;2023-02-28T15:19:11;9.73;;;8.00;;
57025;SDS011;43961;52.940;6.834;2023-02-28T15:21:48;8.55;;;7.68;;
57025;SDS011;43961;52.940;6.834;2023-02-28T15:24:21;10.00;;;6.35;;
57025;SDS011;43961;52.940;6.834;2023-02-28T15:27:15;6.63;;;6.03;;
57025;SDS011;43961;52.940;6.834;2023-02-28T15:30:08;10.07;;;7.05;;
57025;SDS011;43961;52.940;6.834;2023-02-28T15:32:42;7.68;;;6.97;;
57025;SDS011;43961;52.940;6.834;2023-02-28T15:35:27;8.80;;;6.95;;
57025;SDS011;43961;52.940;6.834;2023-02-28T15:37:56;12.20;;;9.50;;
57025;SDS011;43961;52.940;6.834;2023-02-28T15:43:07;10.60;;;8.75;;
57025;SDS011;43961;52.940;6.834;2023-02-28T15:48:31;14.38;;;10.10;;
57025;SDS011;43961;52.940;6.834;2023-02-28T15:53:33;13.98;;;11.68;;
57025;SDS011;43961;52.940;6.834;2023-02-28T15:56:08;12.40;;;11.10;;
57025;SDS011;43961;52.940;6.834;2023-02-28T15:58:49;14.73;;;11.85;;
57025;SDS011;43961;52.940;6.834;2023-02-28T16:01:21;14.35;;;11.85;;
57025;SDS011;43961;52.940;6.834;2023-02-28T16:04:03;12.25;;;10.98;;
57025;SDS011;43961;52.940;6.834;2023-02-28T16:09:03;9.23;;;8.30;;
57025;SDS011;43961;52.940;6.834;2023-02-28T16:11:37;15.98;;;9.50;;
57025;SDS011;43961;52.940;6.834;2023-02-28T16:14:06;13.50;;;10.52;;
57025;SDS011;43961;52.940;6.834;2023-02-28T16:16:33;9.95;;;8.68;;
57025;SDS011;43961;52.940;6.834;2023-02-28T16:19:00;11.55;;;9.15;;
57025;SDS011;43961;52.940;6.834;2023-02-28T16:21:25;10.63;;;9.60;;
57025;SDS011;43961;52.940;6.834;2023-02-28T16:23:51;10.10;;;9.10;;
57025;SDS011;43961;52.940;6.834;2023-02-28T16:26:26;11.75;;;10.40;;
57025;SDS011;43961;52.940;6.834;2023-02-28T16:28:53;11.05;;;9.98;;
57025;SDS011;43961;52.940;6.834;2023-02-28T16:31:20;13.30;;;11.82;;
57025;SDS011;43961;52.940;6.834;2023-02-28T16:33:46;12.90;;;11.32;;
57025;SDS011;43961;52.940;6.834;2023-02-28T16:36:19;13.45;;;10.48;;
57025;SDS011;43961;52.940;6.834;2023-02-28T16:38:47;13.73;;;10.88;;
57025;SDS011;43961;52.940;6.834;2023-02-28T16:41:17;13.70;;;12.25;;
57025;SDS011;43961;52.940;6.834;2023-02-28T16:43:49;12.07;;;10.88;;
57025;SDS011;43961;52.940;6.834;2023-02-28T16:46:16;12.95;;;11.57;;
57025;SDS011;43961;52.940;6.834;2023-02-28T16:48:43;13.20;;;11.82;;
57025;SDS011;43961;52.940;6.834;2023-02-28T16:51:13;13.73;;;11.85;;
57025;SDS011;43961;52.940;6.834;2023-02-28T16:53:40;13.18;;;11.35;;
57025;SDS011;43961;52.940;6.834;2023-02-28T16:56:08;12.95;;;11.75;;
57025;SDS011;43961;52.940;6.834;2023-02-28T16:58:42;23.70;;;12.23;;
57025;SDS011;43961;52.940;6.834;2023-02-28T17:01:10;13.10;;;11.40;;
57025;SDS011;43961;52.940;6.834;2023-02-28T17:03:37;12.27;;;11.07;;
57025;SDS011;43961;52.940;6.834;2023-02-28T17:06:03;16.08;;;12.02;;
57025;SDS011;43961;52.940;6.834;2023-02-28T17:08:30;10.95;;;9.85;;
57025;SDS011;43961;52.940;6.834;2023-02-28T17:10:57;12.48;;;10.38;;
57025;SDS011;43961;52.940;6.834;2023-02-28T17:13:23;12.85;;;10.00;;
57025;SDS011;43961;52.940;6.834;2023-02-28T17:15:49;12.15;;;10.93;;
57025;SDS011;43961;52.940;6.834;2023-02-28T17:18:16;10.82;;;9.75;;
57025;SDS011;43961;52.940;6.834;2023-02-28T17:20:46;10.70;;;9.70;;